createdAt,value
2022-07-26T00:01:58.881Z,2.40
2022-07-26T00:04:26.025Z,2.55
2022-07-26T00:06:55.201Z,2.83
2022-07-26T00:09:21.968Z,3.17
2022-07-26T00:11:48.766Z,2.65
2022-07-26T00:14:15.595Z,2.47
2022-07-26T00:16:43.118Z,2.60
2022-07-26T00:19:10.480Z,2.60
2022-07-26T00:21:40.750Z,2.45
2022-07-26T00:24:08.566Z,2.33
2022-07-26T00:26:35.254Z,2.65
2022-07-26T00:29:04.321Z,2.58
2022-07-26T00:31:32.101Z,2.53
2022-07-26T00:33:58.934Z,2.33
2022-07-26T00:36:28.881Z,2.47
2022-07-26T00:39:00.358Z,2.38
2022-07-26T00:41:27.211Z,2.20
2022-07-26T00:44:00.092Z,2.55
2022-07-26T00:46:29.686Z,2.90
2022-07-26T00:48:58.803Z,2.35
2022-07-26T00:51:28.599Z,2.65
2022-07-26T00:53:55.638Z,2.50
2022-07-26T00:56:23.685Z,2.40
2022-07-26T00:58:50.468Z,2.15
2022-07-26T01:01:19.613Z,2.40
2022-07-26T01:03:50.533Z,2.30
2022-07-26T01:06:17.356Z,2.15
2022-07-26T01:08:44.187Z,2.00
2022-07-26T01:11:11.051Z,2.28
2022-07-26T01:13:37.815Z,2.30
2022-07-26T01:16:04.768Z,2.42
2022-07-26T01:18:31.633Z,2.30
2022-07-26T01:20:59.732Z,2.17
2022-07-26T01:23:26.957Z,2.20
2022-07-26T01:25:55.966Z,2.28
2022-07-26T01:28:23.329Z,2.40
2022-07-26T01:30:50.421Z,2.28
2022-07-26T01:33:17.331Z,2.15
2022-07-26T01:35:44.196Z,2.80
2022-07-26T01:38:11.121Z,2.30
2022-07-26T01:40:37.895Z,2.85
2022-07-26T01:43:04.635Z,3.25
2022-07-26T01:45:31.865Z,2.78
2022-07-26T01:48:03.398Z,1.77
2022-07-26T01:50:32.374Z,1.40
2022-07-26T01:52:59.063Z,1.70
2022-07-26T01:55:25.871Z,1.67
2022-07-26T01:57:53.541Z,1.85
2022-07-26T02:00:20.382Z,1.50
2022-07-26T02:02:47.257Z,1.70
2022-07-26T02:05:16.262Z,1.67
2022-07-26T02:07:46.118Z,1.70
2022-07-26T02:10:14.538Z,1.20
2022-07-26T02:12:42.113Z,1.50
2022-07-26T02:15:14.589Z,1.58
2022-07-26T02:17:46.342Z,1.40
2022-07-26T02:22:43.582Z,1.20
2022-07-26T02:25:12.922Z,1.42
2022-07-26T02:27:39.668Z,1.50
2022-07-26T02:30:09.642Z,1.60
2022-07-26T02:32:38.603Z,1.13
2022-07-26T02:35:08.340Z,1.55
2022-07-26T02:37:40.782Z,1.35
2022-07-26T02:40:16.891Z,1.10
2022-07-26T02:42:47.992Z,1.40
2022-07-26T02:45:19.499Z,1.20
2022-07-26T02:47:51.109Z,1.33
2022-07-26T02:50:19.141Z,1.27
2022-07-26T02:52:49.669Z,1.40
2022-07-26T02:55:18.147Z,1.10
2022-07-26T02:57:46.388Z,1.50
2022-07-26T03:00:18.884Z,1.40
2022-07-26T03:02:45.740Z,2.33
2022-07-26T03:05:12.579Z,2.78
2022-07-26T03:07:39.397Z,1.75
2022-07-26T03:10:09.230Z,1.52
2022-07-26T03:12:36.329Z,1.40
2022-07-26T03:15:03.432Z,1.75
2022-07-26T03:17:30.179Z,1.30
2022-07-26T03:19:59.130Z,1.48
2022-07-26T03:22:28.377Z,1.48
2022-07-26T03:24:55.146Z,1.08
2022-07-26T03:27:24.145Z,1.42
2022-07-26T03:29:50.954Z,1.27
2022-07-26T03:32:19.967Z,1.45
2022-07-26T03:34:46.730Z,1.50
2022-07-26T03:37:13.491Z,1.83
2022-07-26T03:39:40.616Z,1.05
2022-07-26T03:42:07.602Z,1.40
2022-07-26T03:44:34.349Z,1.30
2022-07-26T03:47:01.195Z,1.58
2022-07-26T03:49:30.666Z,2.25
2022-07-26T03:51:59.705Z,1.63
2022-07-26T03:54:26.604Z,1.67
2022-07-26T03:56:53.648Z,1.65
2022-07-26T03:59:20.785Z,1.95
2022-07-26T04:01:48.482Z,1.80
2022-07-26T04:04:19.125Z,2.10
2022-07-26T04:06:56.461Z,1.73
2022-07-26T04:09:25.693Z,1.98
2022-07-26T04:11:52.507Z,1.92
2022-07-26T04:14:19.370Z,1.70
2022-07-26T04:16:48.371Z,1.70
2022-07-26T04:19:15.229Z,1.83
2022-07-26T04:21:42.023Z,1.30
2022-07-26T04:24:09.718Z,1.80
2022-07-26T04:26:37.051Z,1.67
2022-07-26T04:29:03.868Z,1.20
2022-07-26T04:31:36.123Z,1.45
2022-07-26T04:34:03.472Z,1.45
2022-07-26T04:36:32.907Z,1.90
2022-07-26T04:39:01.819Z,1.27
2022-07-26T04:41:30.824Z,1.42
2022-07-26T04:44:02.198Z,1.63
2022-07-26T04:46:29.046Z,1.50
2022-07-26T04:48:55.828Z,1.73
2022-07-26T04:51:22.607Z,1.85
2022-07-26T04:53:51.751Z,1.90
2022-07-26T04:56:18.476Z,1.85
2022-07-26T04:58:45.322Z,1.75
2022-07-26T05:01:15.133Z,1.67
2022-07-26T05:03:41.986Z,1.55
2022-07-26T05:06:09.322Z,1.40
2022-07-26T05:08:38.265Z,1.40
2022-07-26T05:11:05.121Z,1.40
2022-07-26T05:13:32.117Z,1.52
2022-07-26T05:16:02.044Z,1.65
2022-07-26T05:18:31.812Z,1.35
2022-07-26T05:21:11.953Z,1.38
2022-07-26T05:23:38.775Z,1.63
2022-07-26T05:26:08.038Z,1.73
2022-07-26T05:28:36.991Z,1.55
2022-07-26T05:31:03.804Z,1.05
2022-07-26T05:33:30.635Z,1.50
2022-07-26T05:35:57.592Z,1.67
2022-07-26T05:38:25.702Z,1.60
2022-07-26T05:40:54.564Z,1.50
2022-07-26T05:43:21.332Z,1.75
2022-07-26T05:45:48.185Z,1.80
2022-07-26T05:48:17.489Z,1.80
2022-07-26T05:50:44.431Z,1.20
2022-07-26T05:53:11.170Z,1.52
2022-07-26T05:55:37.892Z,1.60
2022-07-26T05:58:04.747Z,1.58
2022-07-26T06:00:33.999Z,1.70
2022-07-26T06:03:21.985Z,1.73
2022-07-26T06:05:50.566Z,1.50
2022-07-26T06:08:18.228Z,1.70
2022-07-26T06:10:45.954Z,1.60
2022-07-26T06:13:13.179Z,1.30
2022-07-26T06:15:40.034Z,1.70
2022-07-26T06:18:07.374Z,1.60
2022-07-26T06:20:44.617Z,1.30
2022-07-26T06:23:11.836Z,1.50
2022-07-26T06:25:39.076Z,1.63
2022-07-26T06:28:09.305Z,1.48
2022-07-26T06:30:37.186Z,1.50
2022-07-26T06:33:04.587Z,1.30
2022-07-26T06:35:32.096Z,1.40
2022-07-26T06:38:00.015Z,1.35
2022-07-26T06:40:27.069Z,1.52
2022-07-26T06:42:57.278Z,1.50
2022-07-26T06:47:52.826Z,1.60
2022-07-26T06:50:25.289Z,1.50
2022-07-26T06:52:57.221Z,1.52
2022-07-26T06:55:24.104Z,1.63
2022-07-26T06:57:50.866Z,1.55
2022-07-26T07:00:18.331Z,1.90
2022-07-26T07:02:47.657Z,1.73
2022-07-26T07:05:17.147Z,1.95
2022-07-26T07:07:44.317Z,1.45
2022-07-26T07:10:12.572Z,1.63
2022-07-26T07:12:40.075Z,1.40
2022-07-26T07:15:07.323Z,1.48
2022-07-26T07:17:34.971Z,1.70
2022-07-26T07:20:03.719Z,1.67
2022-07-26T07:22:30.523Z,1.58
2022-07-26T07:24:57.307Z,1.80
2022-07-26T07:27:24.470Z,1.10
2022-07-26T07:29:54.181Z,1.35
2022-07-26T07:32:23.020Z,1.50
2022-07-26T07:34:53.875Z,1.50
2022-07-26T07:37:20.849Z,1.63
2022-07-26T07:39:50.174Z,1.42
2022-07-26T07:42:20.261Z,1.40
2022-07-26T07:44:50.405Z,1.60
2022-07-26T07:47:17.288Z,1.42
2022-07-26T07:49:46.568Z,1.27
2022-07-26T07:52:15.615Z,1.20
2022-07-26T07:54:44.482Z,1.30
2022-07-26T07:57:11.373Z,1.10
2022-07-26T07:59:40.530Z,1.27
2022-07-26T08:02:07.494Z,1.25
2022-07-26T08:04:36.853Z,1.40
2022-07-26T08:07:03.769Z,1.25
2022-07-26T08:09:30.502Z,1.13
2022-07-26T08:12:03.444Z,0.95
2022-07-26T08:14:30.252Z,1.13
2022-07-26T08:16:57.088Z,0.93
2022-07-26T08:19:24.029Z,0.90
2022-07-26T08:21:55.556Z,1.05
2022-07-26T08:24:22.352Z,1.30
2022-07-26T08:26:51.385Z,1.20
2022-07-26T08:29:18.238Z,0.93
2022-07-26T08:31:45.577Z,1.15
2022-07-26T08:34:12.407Z,1.25
2022-07-26T08:36:49.616Z,1.17
2022-07-26T08:39:25.910Z,1.10
2022-07-26T08:41:52.660Z,1.65
2022-07-26T08:44:19.488Z,1.30
2022-07-26T08:46:46.214Z,1.10
2022-07-26T08:49:15.296Z,1.15
2022-07-26T08:51:43.880Z,1.10
2022-07-26T08:54:12.671Z,1.17
2022-07-26T08:56:58.527Z,1.20
2022-07-26T08:59:26.520Z,1.10
2022-07-26T09:02:08.735Z,1.45
2022-07-26T09:04:44.007Z,1.17
2022-07-26T09:07:12.914Z,1.45
2022-07-26T09:10:04.050Z,1.00
2022-07-26T09:12:32.187Z,0.90
2022-07-26T09:15:04.449Z,1.00
2022-07-26T09:17:43.111Z,0.90
2022-07-26T09:20:28.076Z,0.90
2022-07-26T09:23:15.147Z,0.93
2022-07-26T09:25:44.894Z,0.80
2022-07-26T09:28:27.321Z,1.00
2022-07-26T09:30:57.960Z,1.00
2022-07-26T09:33:25.143Z,1.10
2022-07-26T09:36:05.584Z,1.05
2022-07-26T09:38:44.990Z,0.77
2022-07-26T09:41:35.059Z,0.80
2022-07-26T09:44:06.721Z,0.80
2022-07-26T09:49:19.925Z,0.80
2022-07-26T09:51:51.731Z,1.02
2022-07-26T09:57:06.069Z,0.80
2022-07-26T09:59:36.430Z,1.00
2022-07-26T10:02:03.466Z,1.02
2022-07-26T10:04:30.378Z,0.82
2022-07-26T10:07:02.921Z,0.82
2022-07-26T10:09:39.310Z,0.90
2022-07-26T10:12:10.737Z,0.60
2022-07-26T10:14:42.730Z,1.00
2022-07-26T10:17:30.990Z,1.08
2022-07-26T10:20:04.355Z,0.80
2022-07-26T10:22:46.269Z,0.60
2022-07-26T10:25:19.191Z,0.77
2022-07-26T10:27:57.682Z,0.95
2022-07-26T10:30:34.489Z,0.88
2022-07-26T10:33:03.350Z,1.00
2022-07-26T10:35:40.313Z,0.60
2022-07-26T10:38:11.725Z,0.60
2022-07-26T10:41:00.488Z,0.70
2022-07-26T10:43:43.743Z,0.85
2022-07-26T10:46:16.487Z,0.70
2022-07-26T10:49:08.694Z,0.90
2022-07-26T10:54:09.813Z,0.73
2022-07-26T10:56:37.434Z,0.63
2022-07-26T10:59:05.393Z,0.68
2022-07-26T11:01:43.007Z,0.55
2022-07-26T11:04:21.941Z,0.90
2022-07-26T11:06:49.135Z,0.70
2022-07-26T11:09:17.350Z,0.52
2022-07-26T11:11:46.742Z,0.73
2022-07-26T11:14:16.439Z,0.60
2022-07-26T11:16:46.743Z,0.65
2022-07-26T11:19:17.743Z,0.60
2022-07-26T11:21:53.468Z,0.68
2022-07-26T11:24:22.756Z,0.90
2022-07-26T11:26:49.868Z,0.93
2022-07-26T11:29:37.283Z,0.85
2022-07-26T11:32:19.028Z,0.68
2022-07-26T11:34:46.800Z,0.60
2022-07-26T11:37:14.362Z,0.70
2022-07-26T11:39:43.636Z,0.80
2022-07-26T11:42:13.634Z,0.85
2022-07-26T11:44:47.245Z,0.70
2022-07-26T11:47:21.447Z,0.70
2022-07-26T11:50:11.624Z,0.60
2022-07-26T11:52:42.338Z,0.82
2022-07-26T11:55:09.557Z,0.70
2022-07-26T11:57:38.770Z,0.80
2022-07-26T12:00:06.588Z,0.95
2022-07-26T12:02:33.530Z,0.60
2022-07-26T12:05:33.380Z,0.52
2022-07-26T12:08:05.147Z,0.65
2022-07-26T12:10:32.246Z,0.60
2022-07-26T12:13:16.524Z,0.80
2022-07-26T12:15:53.955Z,0.70
2022-07-26T12:18:31.349Z,0.50
2022-07-26T12:21:04.140Z,0.85
2022-07-26T12:23:49.042Z,0.77
2022-07-26T12:26:24.889Z,0.70
2022-07-26T12:28:52.351Z,0.70
2022-07-26T12:31:34.907Z,0.50
2022-07-26T12:34:02.055Z,0.47
2022-07-26T12:36:30.158Z,0.60
2022-07-26T12:39:01.192Z,0.70
2022-07-26T12:41:36.650Z,0.30
2022-07-26T12:44:12.498Z,0.57
2022-07-26T12:46:39.942Z,0.55
2022-07-26T12:49:06.980Z,0.50
2022-07-26T12:51:34.309Z,0.40
2022-07-26T12:54:01.398Z,0.60
2022-07-26T12:56:33.852Z,0.40
2022-07-26T12:59:05.465Z,0.60
2022-07-26T13:01:32.955Z,0.60
2022-07-26T13:04:03.181Z,0.50
2022-07-26T13:06:30.081Z,0.50
2022-07-26T13:08:56.875Z,0.82
2022-07-26T13:11:23.983Z,0.40
2022-07-26T13:13:50.901Z,0.50
2022-07-26T13:16:20.004Z,0.60
2022-07-26T13:18:49.107Z,0.55
2022-07-26T13:21:16.144Z,0.50
2022-07-26T13:23:42.977Z,0.70
2022-07-26T13:26:12.371Z,0.40
2022-07-26T13:28:40.575Z,0.40
2022-07-26T13:31:07.467Z,0.40
2022-07-26T13:33:34.406Z,0.47
2022-07-26T13:36:01.449Z,0.40
2022-07-26T13:38:28.972Z,0.52
2022-07-26T13:40:56.459Z,0.40
2022-07-26T13:43:28.768Z,0.30
2022-07-26T13:45:55.518Z,0.60
2022-07-26T13:48:22.500Z,0.50
2022-07-26T13:50:49.720Z,0.50
2022-07-26T13:53:16.795Z,0.65
2022-07-26T13:55:43.597Z,0.57
2022-07-26T13:58:10.607Z,0.68
2022-07-26T14:00:38.018Z,0.32
2022-07-26T14:03:05.130Z,0.60
2022-07-26T14:05:34.139Z,0.40
2022-07-26T14:08:00.915Z,0.47
2022-07-26T14:10:30.109Z,0.40
2022-07-26T14:12:57.836Z,0.38
2022-07-26T14:15:24.935Z,0.60
2022-07-26T14:17:52.766Z,0.35
2022-07-26T14:20:21.207Z,0.40
2022-07-26T14:22:48.379Z,0.47
2022-07-26T14:25:15.182Z,0.50
2022-07-26T14:27:41.965Z,0.40
2022-07-26T14:30:09.054Z,0.80
2022-07-26T14:32:38.280Z,0.52
2022-07-26T14:35:13.644Z,0.30
2022-07-26T14:37:43.001Z,0.68
2022-07-26T14:40:13.477Z,0.50
2022-07-26T14:42:42.798Z,0.40
2022-07-26T14:45:10.413Z,0.50
2022-07-26T14:47:37.830Z,0.40
2022-07-26T14:50:07.508Z,0.50
2022-07-26T14:52:39.472Z,0.50
2022-07-26T14:57:39.672Z,0.40
2022-07-26T15:00:11.654Z,0.50
2022-07-26T15:02:40.497Z,0.50
2022-07-26T15:05:07.985Z,0.40
2022-07-26T15:07:34.765Z,0.50
2022-07-26T15:10:01.669Z,0.32
2022-07-26T15:12:28.468Z,0.70
2022-07-26T15:14:55.228Z,0.57
2022-07-26T15:17:22.006Z,0.50
2022-07-26T15:19:50.958Z,0.88
2022-07-26T15:22:20.431Z,0.68
2022-07-26T15:24:47.193Z,0.57
2022-07-26T15:27:13.935Z,0.63
2022-07-26T15:29:40.915Z,0.80
2022-07-26T15:32:09.863Z,0.38
2022-07-26T15:34:36.680Z,0.50
2022-07-26T15:37:08.057Z,0.70
2022-07-26T15:39:37.041Z,0.40
2022-07-26T15:42:07.881Z,0.65
2022-07-26T15:44:42.018Z,0.47
2022-07-26T15:47:08.808Z,0.50
2022-07-26T15:49:40.308Z,0.50
2022-07-26T15:52:12.932Z,0.43
2022-07-26T15:54:42.088Z,0.50
2022-07-26T15:57:09.433Z,0.47
2022-07-26T15:59:36.333Z,0.40
2022-07-26T16:02:05.649Z,0.60
2022-07-26T16:04:32.461Z,0.55
2022-07-26T16:07:04.050Z,0.60
2022-07-26T16:09:35.296Z,0.57
2022-07-26T16:12:06.235Z,0.40
2022-07-26T16:14:33.211Z,0.32
2022-07-26T16:17:00.234Z,0.55
2022-07-26T16:19:27.009Z,0.85
2022-07-26T16:21:53.989Z,0.47
2022-07-26T16:24:20.853Z,0.45
2022-07-26T16:26:51.191Z,0.30
2022-07-26T16:29:18.541Z,0.70
2022-07-26T16:31:47.787Z,0.40
2022-07-26T16:34:17.115Z,0.38
2022-07-26T16:36:43.929Z,0.50
2022-07-26T16:39:15.734Z,0.60
2022-07-26T16:41:42.909Z,0.30
2022-07-26T16:44:09.723Z,0.50
2022-07-26T16:46:39.073Z,0.68
2022-07-26T16:49:08.730Z,0.50
2022-07-26T16:51:35.908Z,0.50
2022-07-26T16:54:02.743Z,0.50
2022-07-26T16:56:29.562Z,0.40
2022-07-26T16:59:01.172Z,0.40
2022-07-26T17:01:28.090Z,0.50
2022-07-26T17:03:57.371Z,0.30
2022-07-26T17:06:24.157Z,0.40
2022-07-26T17:08:53.222Z,0.35
2022-07-26T17:11:20.029Z,0.50
2022-07-26T17:13:49.482Z,0.45
2022-07-26T17:16:16.349Z,0.60
2022-07-26T17:18:56.412Z,0.50
2022-07-26T17:21:23.788Z,0.80
2022-07-26T17:23:53.108Z,0.30
2022-07-26T17:26:20.323Z,0.50
2022-07-26T17:28:47.175Z,0.43
2022-07-26T17:31:13.904Z,0.47
2022-07-26T17:33:40.680Z,0.60
2022-07-26T17:36:21.130Z,0.63
2022-07-26T17:38:47.873Z,0.43
2022-07-26T17:41:18.398Z,0.50
2022-07-26T17:43:46.159Z,0.50
2022-07-26T17:46:13.253Z,0.57
2022-07-26T17:48:41.659Z,0.50
2022-07-26T17:51:08.488Z,0.50
2022-07-26T17:53:37.766Z,0.40
2022-07-26T17:56:04.916Z,0.60
2022-07-26T17:58:34.125Z,0.60
2022-07-26T18:01:03.642Z,0.50
2022-07-26T18:03:30.453Z,0.50
2022-07-26T18:05:57.273Z,0.63
2022-07-26T18:08:27.034Z,0.50
2022-07-26T18:10:55.433Z,0.47
2022-07-26T18:13:22.808Z,0.50
2022-07-26T18:15:50.161Z,0.40
2022-07-26T18:18:22.685Z,0.40
2022-07-26T18:20:49.666Z,0.30
2022-07-26T18:23:16.547Z,0.70
2022-07-26T18:25:46.151Z,0.47
2022-07-26T18:28:13.216Z,0.75
2022-07-26T18:30:42.725Z,0.60
2022-07-26T18:33:11.907Z,0.70
2022-07-26T18:35:39.187Z,0.50
2022-07-26T18:38:06.746Z,0.80
2022-07-26T18:40:33.851Z,0.70
2022-07-26T18:43:00.904Z,0.60
2022-07-26T18:45:30.611Z,0.55
2022-07-26T18:47:57.505Z,0.60
2022-07-26T18:50:32.302Z,0.57
2022-07-26T18:53:03.733Z,0.77
2022-07-26T18:55:30.510Z,0.70
2022-07-26T18:58:04.613Z,1.02
2022-07-26T19:00:33.212Z,0.85
2022-07-26T19:02:59.943Z,0.70
2022-07-26T19:05:26.794Z,0.90
2022-07-26T19:08:04.099Z,0.70
2022-07-26T19:10:33.471Z,0.73
2022-07-26T19:13:00.323Z,0.65
2022-07-26T19:15:27.592Z,0.80
2022-07-26T19:17:54.500Z,0.90
2022-07-26T19:20:23.953Z,0.60
2022-07-26T19:22:51.055Z,0.98
2022-07-26T19:25:20.420Z,0.88
2022-07-26T19:27:47.251Z,0.70
2022-07-26T19:30:18.506Z,0.73
2022-07-26T19:32:45.297Z,0.50
2022-07-26T19:35:15.346Z,0.70
2022-07-26T19:37:45.517Z,0.80
2022-07-26T19:40:14.988Z,0.73
2022-07-26T19:42:44.520Z,0.60
2022-07-26T19:45:12.023Z,0.50
2022-07-26T19:47:39.108Z,0.73
2022-07-26T19:50:07.408Z,0.65
2022-07-26T19:52:36.539Z,1.00
2022-07-26T19:55:06.015Z,0.45
2022-07-26T19:57:35.771Z,0.70
2022-07-26T20:00:05.568Z,0.70
2022-07-26T20:02:32.623Z,0.70
2022-07-26T20:04:59.554Z,0.55
2022-07-26T20:07:26.340Z,0.80
2022-07-26T20:09:53.153Z,0.70
2022-07-26T20:12:20.666Z,0.82
2022-07-26T20:14:47.551Z,0.60
2022-07-26T20:17:14.415Z,0.93
2022-07-26T20:19:44.325Z,0.80
2022-07-26T20:22:11.434Z,0.90
2022-07-26T20:24:40.486Z,0.80
2022-07-26T20:27:11.869Z,0.80
2022-07-26T20:29:38.727Z,0.80
2022-07-26T20:32:05.933Z,0.80
2022-07-26T20:34:32.738Z,0.60
2022-07-26T20:37:02.135Z,0.57
2022-07-26T20:39:29.143Z,0.70
2022-07-26T20:41:57.167Z,0.93
2022-07-26T20:44:28.806Z,0.60
2022-07-26T20:46:55.704Z,0.80
2022-07-26T20:49:22.597Z,0.88
2022-07-26T20:51:49.445Z,0.73
2022-07-26T20:54:18.507Z,1.05
2022-07-26T20:56:45.308Z,1.20
2022-07-26T20:59:14.983Z,0.85
2022-07-26T21:01:46.723Z,1.02
2022-07-26T21:04:16.146Z,0.88
2022-07-26T21:06:45.050Z,0.80
2022-07-26T21:09:14.569Z,0.80
2022-07-26T21:11:41.603Z,0.77
2022-07-26T21:14:08.532Z,0.85
2022-07-26T21:16:37.983Z,0.80
2022-07-26T21:19:05.891Z,0.90
2022-07-26T21:21:38.140Z,1.13
2022-07-26T21:24:06.390Z,1.00
2022-07-26T21:26:33.547Z,1.00
2022-07-26T21:29:00.388Z,0.60
2022-07-26T21:31:31.801Z,0.90
2022-07-26T21:33:58.954Z,0.80
2022-07-26T21:36:25.853Z,0.88
2022-07-26T21:38:52.685Z,0.80
2022-07-26T21:41:21.701Z,0.80
2022-07-26T21:43:48.451Z,0.88
2022-07-26T21:46:15.382Z,0.80
2022-07-26T21:48:42.616Z,0.95
2022-07-26T21:51:09.529Z,0.80
2022-07-26T21:53:38.538Z,0.80
2022-07-26T21:56:05.648Z,1.05
2022-07-26T21:58:36.519Z,1.13
2022-07-26T22:01:06.314Z,0.80
2022-07-26T22:03:35.379Z,1.00
2022-07-26T22:06:02.556Z,0.80
2022-07-26T22:08:32.051Z,0.95
2022-07-26T22:10:59.052Z,0.80
2022-07-26T22:13:28.019Z,0.98
2022-07-26T22:15:54.863Z,1.10
2022-07-26T22:18:24.139Z,0.90
2022-07-26T22:20:53.123Z,1.13
2022-07-26T22:23:21.934Z,0.68
2022-07-26T22:25:49.594Z,0.80
2022-07-26T22:28:19.055Z,1.17
2022-07-26T22:30:50.632Z,0.90
2022-07-26T22:33:20.255Z,1.00
2022-07-26T22:35:47.033Z,0.88
2022-07-26T22:38:16.535Z,1.20
2022-07-26T22:40:44.320Z,0.90
2022-07-26T22:43:11.957Z,0.90
2022-07-26T22:45:41.294Z,1.13
2022-07-26T22:48:10.837Z,0.90
2022-07-26T22:50:38.023Z,1.10
2022-07-26T22:53:04.881Z,0.90
2022-07-26T22:55:34.285Z,1.00
2022-07-26T22:58:01.273Z,1.00
2022-07-26T23:00:31.475Z,1.20
2022-07-26T23:02:58.217Z,0.90
2022-07-26T23:05:30.113Z,1.25
2022-07-26T23:08:44.400Z,0.90
2022-07-26T23:11:03.438Z,1.38
2022-07-26T23:13:30.352Z,1.05
2022-07-26T23:16:01.314Z,1.13
2022-07-26T23:18:29.752Z,1.15
2022-07-26T23:20:56.843Z,0.80
2022-07-26T23:23:29.547Z,1.00
2022-07-26T23:25:58.241Z,1.20
2022-07-26T23:28:37.647Z,1.00
2022-07-26T23:31:12.293Z,0.95
2022-07-26T23:33:53.282Z,1.10
2022-07-26T23:36:25.783Z,0.90
2022-07-26T23:38:56.067Z,1.20
2022-07-26T23:41:28.322Z,1.20
2022-07-26T23:43:55.688Z,0.98
2022-07-26T23:46:23.230Z,0.90
2022-07-26T23:48:50.812Z,1.10
2022-07-26T23:51:19.455Z,1.00
2022-07-26T23:53:46.751Z,1.10
2022-07-26T23:56:13.638Z,1.10
2022-07-26T23:58:40.432Z,0.90
